sensor_id;sensor_type;location;lat;lon;timestamp;temperature;humidity
10083;DHT22;5080;48.528;8.078;2023-02-01T00:00:19;7.00;99.90
10083;DHT22;5080;48.528;8.078;2023-02-01T00:02:46;7.00;99.90
10083;DHT22;5080;48.528;8.078;2023-02-01T00:05:13;7.00;99.90
10083;DHT22;5080;48.528;8.078;2023-02-01T00:07:40;7.00;99.90
10083;DHT22;5080;48.528;8.078;2023-02-01T00:10:10;6.90;99.90
10083;DHT22;5080;48.528;8.078;2023-02-01T00:12:37;6.90;99.90
10083;DHT22;5080;48.528;8.078;2023-02-01T00:15:04;6.90;99.90
10083;DHT22;5080;48.528;8.078;2023-02-01T00:17:32;6.90;99.90
10083;DHT22;5080;48.528;8.078;2023-02-01T00:19:59;6.90;99.90
10083;DHT22;5080;48.528;8.078;2023-02-01T00:22:26;6.80;99.90
10083;DHT22;5080;48.528;8.078;2023-02-01T00:24:52;6.90;99.90
10083;DHT22;5080;48.528;8.078;2023-02-01T00:27:21;6.90;99.90
10083;DHT22;5080;48.528;8.078;2023-02-01T00:29:47;6.80;99.90
10083;DHT22;5080;48.528;8.078;2023-02-01T00:32:14;6.90;99.90
10083;DHT22;5080;48.528;8.078;2023-02-01T00:34:41;6.90;99.90
10083;DHT22;5080;48.528;8.078;2023-02-01T00:37:08;6.90;99.90
10083;DHT22;5080;48.528;8.078;2023-02-01T00:39:35;6.90;99.90
10083;DHT22;5080;48.528;8.078;2023-02-01T00:42:02;6.90;99.90
10083;DHT22;5080;48.528;8.078;2023-02-01T00:44:30;6.90;99.90
10083;DHT22;5080;48.528;8.078;2023-02-01T00:47:00;6.90;99.90
10083;DHT22;5080;48.528;8.078;2023-02-01T00:49:27;7.00;99.90
10083;DHT22;5080;48.528;8.078;2023-02-01T00:51:54;7.00;99.90
10083;DHT22;5080;48.528;8.078;2023-02-01T00:54:21;6.90;99.90
10083;DHT22;5080;48.528;8.078;2023-02-01T00:56:48;7.00;99.90
10083;DHT22;5080;48.528;8.078;2023-02-01T00:59:15;7.00;99.90
10083;DHT22;5080;48.528;8.078;2023-02-01T01:01:43;7.00;99.90
10083;DHT22;5080;48.528;8.078;2023-02-01T01:04:10;7.10;99.90
10083;DHT22;5080;48.528;8.078;2023-02-01T01:06:36;7.00;99.90
10083;DHT22;5080;48.528;8.078;2023-02-01T01:09:06;7.00;99.90
10083;DHT22;5080;48.528;8.078;2023-02-01T01:11:34;7.00;99.90
10083;DHT22;5080;48.528;8.078;2023-02-01T01:14:02;7.00;99.90
10083;DHT22;5080;48.528;8.078;2023-02-01T01:16:31;7.00;99.90
10083;DHT22;5080;48.528;8.078;2023-02-01T01:19:00;7.10;99.90
10083;DHT22;5080;48.528;8.078;2023-02-01T01:21:27;7.10;99.90
10083;DHT22;5080;48.528;8.078;2023-02-01T01:23:54;7.10;99.90
10083;DHT22;5080;48.528;8.078;2023-02-01T01:26:24;7.10;99.90
10083;DHT22;5080;48.528;8.078;2023-02-01T01:28:51;7.10;99.90
10083;DHT22;5080;48.528;8.078;2023-02-01T01:31:19;7.10;99.90
10083;DHT22;5080;48.528;8.078;2023-02-01T01:33:50;7.20;99.90
10083;DHT22;5080;48.528;8.078;2023-02-01T01:36:19;7.20;99.90
10083;DHT22;5080;48.528;8.078;2023-02-01T01:38:46;7.20;99.90
10083;DHT22;5080;48.528;8.078;2023-02-01T01:41:15;7.10;99.90
10083;DHT22;5080;48.528;8.078;2023-02-01T01:43:50;7.10;99.90
10083;DHT22;5080;48.528;8.078;2023-02-01T01:46:18;7.10;99.90
10083;DHT22;5080;48.528;8.078;2023-02-01T01:48:48;7.10;99.90
10083;DHT22;5080;48.528;8.078;2023-02-01T01:51:20;7.00;99.90
10083;DHT22;5080;48.528;8.078;2023-02-01T01:53:57;7.10;99.90
10083;DHT22;5080;48.528;8.078;2023-02-01T01:56:26;7.10;99.90
10083;DHT22;5080;48.528;8.078;2023-02-01T01:58:54;7.10;99.90
10083;DHT22;5080;48.528;8.078;2023-02-01T02:01:22;7.10;99.90
10083;DHT22;5080;48.528;8.078;2023-02-01T02:03:50;7.10;99.90
10083;DHT22;5080;48.528;8.078;2023-02-01T02:06:30;7.10;99.90
10083;DHT22;5080;48.528;8.078;2023-02-01T02:08:57;7.20;99.90
10083;DHT22;5080;48.528;8.078;2023-02-01T02:11:24;7.10;99.90
10083;DHT22;5080;48.528;8.078;2023-02-01T02:13:53;7.10;99.90
10083;DHT22;5080;48.528;8.078;2023-02-01T02:16:35;7.10;99.90
10083;DHT22;5080;48.528;8.078;2023-02-01T02:19:45;7.10;99.90
10083;DHT22;5080;48.528;8.078;2023-02-01T02:25:36;7.20;99.90
10083;DHT22;5080;48.528;8.078;2023-02-01T02:28:29;7.30;99.90
10083;DHT22;5080;48.528;8.078;2023-02-01T02:31:18;7.10;99.90
10083;DHT22;5080;48.528;8.078;2023-02-01T02:34:09;7.00;99.90
10083;DHT22;5080;48.528;8.078;2023-02-01T02:36:44;7.00;99.90
10083;DHT22;5080;48.528;8.078;2023-02-01T02:39:21;7.00;99.90
10083;DHT22;5080;48.528;8.078;2023-02-01T02:41:54;7.20;99.90
10083;DHT22;5080;48.528;8.078;2023-02-01T02:44:47;7.00;99.90
10083;DHT22;5080;48.528;8.078;2023-02-01T02:47:36;7.00;99.90
10083;DHT22;5080;48.528;8.078;2023-02-01T02:50:14;7.10;99.90
10083;DHT22;5080;48.528;8.078;2023-02-01T02:53:02;7.10;99.90
10083;DHT22;5080;48.528;8.078;2023-02-01T02:55:50;7.10;99.90
10083;DHT22;5080;48.528;8.078;2023-02-01T02:58:18;7.10;99.90
10083;DHT22;5080;48.528;8.078;2023-02-01T03:01:03;7.20;99.90
10083;DHT22;5080;48.528;8.078;2023-02-01T03:03:48;7.20;99.90
10083;DHT22;5080;48.528;8.078;2023-02-01T03:06:36;7.20;99.90
10083;DHT22;5080;48.528;8.078;2023-02-01T03:09:08;7.20;99.90
10083;DHT22;5080;48.528;8.078;2023-02-01T03:11:36;7.10;99.90
10083;DHT22;5080;48.528;8.078;2023-02-01T03:14:23;7.20;99.90
10083;DHT22;5080;48.528;8.078;2023-02-01T03:16:56;7.20;99.90
10083;DHT22;5080;48.528;8.078;2023-02-01T03:19:27;7.20;99.90
10083;DHT22;5080;48.528;8.078;2023-02-01T03:21:59;7.20;99.90
10083;DHT22;5080;48.528;8.078;2023-02-01T03:24:30;7.20;99.90
10083;DHT22;5080;48.528;8.078;2023-02-01T03:27:03;7.20;99.90
10083;DHT22;5080;48.528;8.078;2023-02-01T03:29:37;7.20;99.90
10083;DHT22;5080;48.528;8.078;2023-02-01T03:32:04;7.20;99.90
10083;DHT22;5080;48.528;8.078;2023-02-01T03:34:32;7.20;99.90
10083;DHT22;5080;48.528;8.078;2023-02-01T03:37:03;7.10;99.90
10083;DHT22;5080;48.528;8.078;2023-02-01T03:39:34;7.10;99.90
10083;DHT22;5080;48.528;8.078;2023-02-01T03:42:05;7.10;99.90
10083;DHT22;5080;48.528;8.078;2023-02-01T03:44:37;7.10;99.90
10083;DHT22;5080;48.528;8.078;2023-02-01T03:47:08;7.20;99.90
10083;DHT22;5080;48.528;8.078;2023-02-01T03:49:39;7.10;99.90
10083;DHT22;5080;48.528;8.078;2023-02-01T03:52:11;7.10;99.90
10083;DHT22;5080;48.528;8.078;2023-02-01T03:54:40;7.20;99.90
10083;DHT22;5080;48.528;8.078;2023-02-01T03:57:11;7.10;99.90
10083;DHT22;5080;48.528;8.078;2023-02-01T03:59:39;7.10;99.90
10083;DHT22;5080;48.528;8.078;2023-02-01T04:02:06;7.20;99.90
10083;DHT22;5080;48.528;8.078;2023-02-01T04:04:33;7.10;99.90
10083;DHT22;5080;48.528;8.078;2023-02-01T04:07:00;7.10;99.90
10083;DHT22;5080;48.528;8.078;2023-02-01T04:09:29;7.10;99.90
10083;DHT22;5080;48.528;8.078;2023-02-01T04:11:56;7.10;99.90
10083;DHT22;5080;48.528;8.078;2023-02-01T04:14:22;7.10;99.90
10083;DHT22;5080;48.528;8.078;2023-02-01T04:16:49;7.10;99.90
10083;DHT22;5080;48.528;8.078;2023-02-01T04:19:16;7.10;99.90
10083;DHT22;5080;48.528;8.078;2023-02-01T04:21:43;7.10;99.90
10083;DHT22;5080;48.528;8.078;2023-02-01T04:24:10;7.10;99.90
10083;DHT22;5080;48.528;8.078;2023-02-01T04:26:39;7.10;99.90
10083;DHT22;5080;48.528;8.078;2023-02-01T04:29:06;7.20;99.90
10083;DHT22;5080;48.528;8.078;2023-02-01T04:31:32;7.10;99.90
10083;DHT22;5080;48.528;8.078;2023-02-01T04:34:01;7.10;99.90
10083;DHT22;5080;48.528;8.078;2023-02-01T04:36:28;7.10;99.90
10083;DHT22;5080;48.528;8.078;2023-02-01T04:38:55;7.10;99.90
10083;DHT22;5080;48.528;8.078;2023-02-01T04:41:22;7.20;99.90
10083;DHT22;5080;48.528;8.078;2023-02-01T04:43:50;7.20;99.90
10083;DHT22;5080;48.528;8.078;2023-02-01T04:46:18;7.20;99.90
10083;DHT22;5080;48.528;8.078;2023-02-01T04:48:44;7.20;99.90
10083;DHT22;5080;48.528;8.078;2023-02-01T04:51:12;7.20;99.90
10083;DHT22;5080;48.528;8.078;2023-02-01T04:53:40;7.20;99.90
10083;DHT22;5080;48.528;8.078;2023-02-01T04:56:07;7.20;99.90
10083;DHT22;5080;48.528;8.078;2023-02-01T04:58:34;7.20;99.90
10083;DHT22;5080;48.528;8.078;2023-02-01T05:01:03;7.20;99.90
10083;DHT22;5080;48.528;8.078;2023-02-01T05:03:31;7.20;99.90
10083;DHT22;5080;48.528;8.078;2023-02-01T05:05:58;7.30;99.90
10083;DHT22;5080;48.528;8.078;2023-02-01T05:08:24;7.30;99.90
10083;DHT22;5080;48.528;8.078;2023-02-01T05:10:52;7.30;99.90
10083;DHT22;5080;48.528;8.078;2023-02-01T05:13:19;7.40;99.90
10083;DHT22;5080;48.528;8.078;2023-02-01T05:16:05;7.40;99.90
10083;DHT22;5080;48.528;8.078;2023-02-01T05:18:32;7.40;99.90
10083;DHT22;5080;48.528;8.078;2023-02-01T05:20:59;7.50;99.90
10083;DHT22;5080;48.528;8.078;2023-02-01T05:23:27;7.50;99.90
10083;DHT22;5080;48.528;8.078;2023-02-01T05:25:58;7.40;99.90
10083;DHT22;5080;48.528;8.078;2023-02-01T05:28:25;7.50;99.90
10083;DHT22;5080;48.528;8.078;2023-02-01T05:30:52;7.50;99.90
10083;DHT22;5080;48.528;8.078;2023-02-01T05:33:20;7.50;99.90
10083;DHT22;5080;48.528;8.078;2023-02-01T05:35:47;7.60;99.90
10083;DHT22;5080;48.528;8.078;2023-02-01T05:38:15;7.60;99.90
10083;DHT22;5080;48.528;8.078;2023-02-01T05:40:43;7.50;99.90
10083;DHT22;5080;48.528;8.078;2023-02-01T05:43:15;7.70;99.90
10083;DHT22;5080;48.528;8.078;2023-02-01T05:45:42;7.60;99.90
10083;DHT22;5080;48.528;8.078;2023-02-01T05:48:09;7.60;99.90
10083;DHT22;5080;48.528;8.078;2023-02-01T05:50:37;7.60;99.90
10083;DHT22;5080;48.528;8.078;2023-02-01T05:53:04;7.60;99.90
10083;DHT22;5080;48.528;8.078;2023-02-01T05:55:32;7.60;99.90
10083;DHT22;5080;48.528;8.078;2023-02-01T05:57:59;7.50;99.90
10083;DHT22;5080;48.528;8.078;2023-02-01T06:00:26;7.50;99.90
10083;DHT22;5080;48.528;8.078;2023-02-01T06:02:52;7.50;99.90
10083;DHT22;5080;48.528;8.078;2023-02-01T06:05:19;7.50;99.90
10083;DHT22;5080;48.528;8.078;2023-02-01T06:07:47;7.50;99.90
10083;DHT22;5080;48.528;8.078;2023-02-01T06:10:16;7.50;99.90
10083;DHT22;5080;48.528;8.078;2023-02-01T06:12:43;7.40;99.90
10083;DHT22;5080;48.528;8.078;2023-02-01T06:15:10;7.40;99.90
10083;DHT22;5080;48.528;8.078;2023-02-01T06:17:37;7.40;99.90
10083;DHT22;5080;48.528;8.078;2023-02-01T06:20:05;7.40;99.90
10083;DHT22;5080;48.528;8.078;2023-02-01T06:22:33;7.30;99.90
10083;DHT22;5080;48.528;8.078;2023-02-01T06:25:04;7.30;99.90
10083;DHT22;5080;48.528;8.078;2023-02-01T06:27:32;7.20;99.90
10083;DHT22;5080;48.528;8.078;2023-02-01T06:29:59;7.10;99.90
10083;DHT22;5080;48.528;8.078;2023-02-01T06:32:27;7.10;99.90
10083;DHT22;5080;48.528;8.078;2023-02-01T06:34:54;7.10;99.90
10083;DHT22;5080;48.528;8.078;2023-02-01T06:37:22;7.10;99.90
10083;DHT22;5080;48.528;8.078;2023-02-01T06:39:50;7.00;99.90
10083;DHT22;5080;48.528;8.078;2023-02-01T06:42:18;7.10;99.90
10083;DHT22;5080;48.528;8.078;2023-02-01T06:44:45;7.10;99.90
10083;DHT22;5080;48.528;8.078;2023-02-01T06:47:12;7.10;99.90
10083;DHT22;5080;48.528;8.078;2023-02-01T06:49:39;7.10;99.90
10083;DHT22;5080;48.528;8.078;2023-02-01T06:52:06;7.10;99.90
10083;DHT22;5080;48.528;8.078;2023-02-01T06:54:33;7.10;99.90
10083;DHT22;5080;48.528;8.078;2023-02-01T06:56:59;7.10;99.90
10083;DHT22;5080;48.528;8.078;2023-02-01T06:59:28;7.10;99.90
10083;DHT22;5080;48.528;8.078;2023-02-01T07:01:55;7.10;99.90
10083;DHT22;5080;48.528;8.078;2023-02-01T07:04:22;7.10;99.90
10083;DHT22;5080;48.528;8.078;2023-02-01T07:06:48;7.10;99.90
10083;DHT22;5080;48.528;8.078;2023-02-01T07:09:15;7.10;99.90
10083;DHT22;5080;48.528;8.078;2023-02-01T07:11:42;7.10;99.90
10083;DHT22;5080;48.528;8.078;2023-02-01T07:14:09;7.00;99.90
10083;DHT22;5080;48.528;8.078;2023-02-01T07:16:38;7.00;99.90
10083;DHT22;5080;48.528;8.078;2023-02-01T07:19:04;7.00;99.90
10083;DHT22;5080;48.528;8.078;2023-02-01T07:21:31;7.00;99.90
10083;DHT22;5080;48.528;8.078;2023-02-01T07:23:58;7.00;99.90
10083;DHT22;5080;48.528;8.078;2023-02-01T07:26:25;7.00;99.90
10083;DHT22;5080;48.528;8.078;2023-02-01T07:28:52;7.00;99.90
10083;DHT22;5080;48.528;8.078;2023-02-01T07:31:19;7.00;99.90
10083;DHT22;5080;48.528;8.078;2023-02-01T07:33:49;7.00;99.90
10083;DHT22;5080;48.528;8.078;2023-02-01T07:36:18;7.10;99.90
10083;DHT22;5080;48.528;8.078;2023-02-01T07:38:45;7.10;99.90
10083;DHT22;5080;48.528;8.078;2023-02-01T07:41:13;7.10;99.90
10083;DHT22;5080;48.528;8.078;2023-02-01T07:43:40;7.00;99.90
10083;DHT22;5080;48.528;8.078;2023-02-01T07:46:09;7.00;99.90
10083;DHT22;5080;48.528;8.078;2023-02-01T07:48:36;7.10;99.90
10083;DHT22;5080;48.528;8.078;2023-02-01T07:51:07;7.10;99.90
10083;DHT22;5080;48.528;8.078;2023-02-01T07:53:35;7.10;99.90
10083;DHT22;5080;48.528;8.078;2023-02-01T07:56:03;7.10;99.90
10083;DHT22;5080;48.528;8.078;2023-02-01T07:58:30;7.10;99.90
10083;DHT22;5080;48.528;8.078;2023-02-01T08:00:57;7.10;99.90
10083;DHT22;5080;48.528;8.078;2023-02-01T08:03:41;7.10;99.90
10083;DHT22;5080;48.528;8.078;2023-02-01T08:06:09;7.10;99.90
10083;DHT22;5080;48.528;8.078;2023-02-01T08:08:36;7.10;99.90
10083;DHT22;5080;48.528;8.078;2023-02-01T08:11:05;7.10;99.90
10083;DHT22;5080;48.528;8.078;2023-02-01T08:13:33;7.10;99.90
10083;DHT22;5080;48.528;8.078;2023-02-01T08:16:01;7.10;99.90
10083;DHT22;5080;48.528;8.078;2023-02-01T08:18:29;7.20;99.90
10083;DHT22;5080;48.528;8.078;2023-02-01T08:20:55;7.20;99.90
10083;DHT22;5080;48.528;8.078;2023-02-01T08:23:24;7.20;99.90
10083;DHT22;5080;48.528;8.078;2023-02-01T08:25:50;7.20;99.90
10083;DHT22;5080;48.528;8.078;2023-02-01T08:28:17;7.20;99.90
10083;DHT22;5080;48.528;8.078;2023-02-01T08:30:44;7.30;99.90
10083;DHT22;5080;48.528;8.078;2023-02-01T08:33:11;7.30;99.90
10083;DHT22;5080;48.528;8.078;2023-02-01T08:35:39;7.40;99.90
10083;DHT22;5080;48.528;8.078;2023-02-01T08:38:05;7.40;99.90
10083;DHT22;5080;48.528;8.078;2023-02-01T08:40:34;7.50;99.90
10083;DHT22;5080;48.528;8.078;2023-02-01T08:43:00;7.50;99.90
10083;DHT22;5080;48.528;8.078;2023-02-01T08:45:28;7.50;99.90
10083;DHT22;5080;48.528;8.078;2023-02-01T08:47:56;7.50;99.90
10083;DHT22;5080;48.528;8.078;2023-02-01T08:50:23;7.60;99.90
10083;DHT22;5080;48.528;8.078;2023-02-01T08:52:51;7.50;99.90
10083;DHT22;5080;48.528;8.078;2023-02-01T08:55:18;7.60;99.90
10083;DHT22;5080;48.528;8.078;2023-02-01T08:57:47;7.60;99.90
10083;DHT22;5080;48.528;8.078;2023-02-01T09:00:16;7.60;99.90
10083;DHT22;5080;48.528;8.078;2023-02-01T09:02:43;7.60;99.90
10083;DHT22;5080;48.528;8.078;2023-02-01T09:05:10;7.60;99.90
10083;DHT22;5080;48.528;8.078;2023-02-01T09:07:37;7.70;99.90
10083;DHT22;5080;48.528;8.078;2023-02-01T09:10:05;7.70;99.90
10083;DHT22;5080;48.528;8.078;2023-02-01T09:12:33;7.70;99.90
10083;DHT22;5080;48.528;8.078;2023-02-01T09:15:02;7.70;99.90
10083;DHT22;5080;48.528;8.078;2023-02-01T09:17:31;7.80;99.90
10083;DHT22;5080;48.528;8.078;2023-02-01T09:19:58;7.80;99.90
10083;DHT22;5080;48.528;8.078;2023-02-01T09:22:25;7.80;99.90
10083;DHT22;5080;48.528;8.078;2023-02-01T09:24:52;7.80;99.90
10083;DHT22;5080;48.528;8.078;2023-02-01T09:27:19;7.90;99.90
10083;DHT22;5080;48.528;8.078;2023-02-01T09:29:46;7.80;99.90
10083;DHT22;5080;48.528;8.078;2023-02-01T09:32:19;7.90;99.90
10083;DHT22;5080;48.528;8.078;2023-02-01T09:34:46;7.80;99.90
10083;DHT22;5080;48.528;8.078;2023-02-01T09:37:12;7.90;99.90
10083;DHT22;5080;48.528;8.078;2023-02-01T09:39:39;7.90;99.90
10083;DHT22;5080;48.528;8.078;2023-02-01T09:42:16;7.90;99.90
10083;DHT22;5080;48.528;8.078;2023-02-01T09:45:03;7.80;99.90
10083;DHT22;5080;48.528;8.078;2023-02-01T09:47:35;7.80;99.90
10083;DHT22;5080;48.528;8.078;2023-02-01T09:50:05;7.80;99.90
10083;DHT22;5080;48.528;8.078;2023-02-01T09:52:36;7.90;99.90
10083;DHT22;5080;48.528;8.078;2023-02-01T09:55:09;7.90;99.90
10083;DHT22;5080;48.528;8.078;2023-02-01T09:57:44;7.90;99.90
10083;DHT22;5080;48.528;8.078;2023-02-01T10:00:17;8.00;99.90
10083;DHT22;5080;48.528;8.078;2023-02-01T10:02:48;8.00;99.90
10083;DHT22;5080;48.528;8.078;2023-02-01T10:05:20;7.90;99.90
10083;DHT22;5080;48.528;8.078;2023-02-01T10:07:58;7.90;99.90
10083;DHT22;5080;48.528;8.078;2023-02-01T10:10:30;7.90;99.90
10083;DHT22;5080;48.528;8.078;2023-02-01T10:13:34;7.80;99.90
10083;DHT22;5080;48.528;8.078;2023-02-01T10:16:23;7.90;99.90
10083;DHT22;5080;48.528;8.078;2023-02-01T10:19:03;7.80;99.90
10083;DHT22;5080;48.528;8.078;2023-02-01T10:21:46;7.80;99.90
10083;DHT22;5080;48.528;8.078;2023-02-01T10:24:25;7.80;99.90
10083;DHT22;5080;48.528;8.078;2023-02-01T10:26:59;7.90;99.90
10083;DHT22;5080;48.528;8.078;2023-02-01T10:29:33;8.00;99.90
10083;DHT22;5080;48.528;8.078;2023-02-01T10:32:01;8.10;99.90
10083;DHT22;5080;48.528;8.078;2023-02-01T10:34:31;8.10;99.90
10083;DHT22;5080;48.528;8.078;2023-02-01T10:37:01;8.10;99.90
10083;DHT22;5080;48.528;8.078;2023-02-01T10:39:34;8.20;99.90
10083;DHT22;5080;48.528;8.078;2023-02-01T10:42:02;8.20;99.90
10083;DHT22;5080;48.528;8.078;2023-02-01T10:44:31;8.10;99.90
10083;DHT22;5080;48.528;8.078;2023-02-01T10:47:04;8.20;99.90
10083;DHT22;5080;48.528;8.078;2023-02-01T10:49:38;8.10;99.90
10083;DHT22;5080;48.528;8.078;2023-02-01T10:52:10;8.10;99.90
10083;DHT22;5080;48.528;8.078;2023-02-01T10:54:39;8.10;99.90
10083;DHT22;5080;48.528;8.078;2023-02-01T10:57:07;8.10;99.90
10083;DHT22;5080;48.528;8.078;2023-02-01T10:59:35;8.20;99.90
10083;DHT22;5080;48.528;8.078;2023-02-01T11:02:16;8.10;99.90
10083;DHT22;5080;48.528;8.078;2023-02-01T11:04:46;8.20;99.90
10083;DHT22;5080;48.528;8.078;2023-02-01T11:07:17;8.20;99.90
10083;DHT22;5080;48.528;8.078;2023-02-01T11:09:50;8.20;99.90
10083;DHT22;5080;48.528;8.078;2023-02-01T11:12:25;8.20;99.90
10083;DHT22;5080;48.528;8.078;2023-02-01T11:14:58;8.10;99.90
10083;DHT22;5080;48.528;8.078;2023-02-01T11:17:28;8.10;99.90
10083;DHT22;5080;48.528;8.078;2023-02-01T11:20:01;8.10;99.90
10083;DHT22;5080;48.528;8.078;2023-02-01T11:22:29;8.10;99.90
10083;DHT22;5080;48.528;8.078;2023-02-01T11:24:56;8.10;99.90
10083;DHT22;5080;48.528;8.078;2023-02-01T11:27:25;8.10;99.90
10083;DHT22;5080;48.528;8.078;2023-02-01T11:29:55;8.00;99.90
10083;DHT22;5080;48.528;8.078;2023-02-01T11:32:23;8.00;99.90
10083;DHT22;5080;48.528;8.078;2023-02-01T11:34:54;8.10;99.90
10083;DHT22;5080;48.528;8.078;2023-02-01T11:37:26;8.10;99.90
10083;DHT22;5080;48.528;8.078;2023-02-01T11:39:55;8.10;99.90
10083;DHT22;5080;48.528;8.078;2023-02-01T11:42:23;8.10;99.90
10083;DHT22;5080;48.528;8.078;2023-02-01T11:44:50;8.10;99.90
10083;DHT22;5080;48.528;8.078;2023-02-01T11:47:23;8.10;99.90
10083;DHT22;5080;48.528;8.078;2023-02-01T11:49:52;8.20;99.90
10083;DHT22;5080;48.528;8.078;2023-02-01T11:52:29;8.10;99.90
10083;DHT22;5080;48.528;8.078;2023-02-01T11:55:15;8.10;99.90
10083;DHT22;5080;48.528;8.078;2023-02-01T11:57:51;8.10;99.90
10083;DHT22;5080;48.528;8.078;2023-02-01T12:00:44;8.10;99.90
10083;DHT22;5080;48.528;8.078;2023-02-01T12:06:16;8.10;99.90
10083;DHT22;5080;48.528;8.078;2023-02-01T12:09:06;8.10;99.90
10083;DHT22;5080;48.528;8.078;2023-02-01T12:11:46;8.20;99.90
10083;DHT22;5080;48.528;8.078;2023-02-01T12:14:31;8.10;99.90
10083;DHT22;5080;48.528;8.078;2023-02-01T12:17:29;8.10;99.90
10083;DHT22;5080;48.528;8.078;2023-02-01T12:20:11;8.10;99.90
10083;DHT22;5080;48.528;8.078;2023-02-01T12:22:54;8.10;99.90
10083;DHT22;5080;48.528;8.078;2023-02-01T12:25:41;8.10;99.90
10083;DHT22;5080;48.528;8.078;2023-02-01T12:28:22;8.10;99.90
10083;DHT22;5080;48.528;8.078;2023-02-01T12:31:20;8.10;99.90
10083;DHT22;5080;48.528;8.078;2023-02-01T12:36:48;8.10;99.90
10083;DHT22;5080;48.528;8.078;2023-02-01T12:39:23;8.10;99.90
10083;DHT22;5080;48.528;8.078;2023-02-01T12:41:57;8.10;99.90
10083;DHT22;5080;48.528;8.078;2023-02-01T12:44:39;8.20;99.90
10083;DHT22;5080;48.528;8.078;2023-02-01T12:47:14;8.20;99.90
10083;DHT22;5080;48.528;8.078;2023-02-01T12:49:51;8.20;99.90
10083;DHT22;5080;48.528;8.078;2023-02-01T12:52:26;8.20;99.90
10083;DHT22;5080;48.528;8.078;2023-02-01T12:54:58;8.10;99.90
10083;DHT22;5080;48.528;8.078;2023-02-01T12:57:32;8.10;99.90
10083;DHT22;5080;48.528;8.078;2023-02-01T13:00:06;8.20;99.90
10083;DHT22;5080;48.528;8.078;2023-02-01T13:02:39;8.20;99.90
10083;DHT22;5080;48.528;8.078;2023-02-01T13:05:14;8.20;99.90
10083;DHT22;5080;48.528;8.078;2023-02-01T13:07:47;8.20;99.90
10083;DHT22;5080;48.528;8.078;2023-02-01T13:10:18;8.20;99.90
10083;DHT22;5080;48.528;8.078;2023-02-01T13:12:51;8.20;99.90
10083;DHT22;5080;48.528;8.078;2023-02-01T13:15:24;8.20;99.90
10083;DHT22;5080;48.528;8.078;2023-02-01T13:17:53;8.10;99.90
10083;DHT22;5080;48.528;8.078;2023-02-01T13:20:25;8.20;99.90
10083;DHT22;5080;48.528;8.078;2023-02-01T13:22:57;8.20;99.90
10083;DHT22;5080;48.528;8.078;2023-02-01T13:25:31;8.20;99.90
10083;DHT22;5080;48.528;8.078;2023-02-01T13:28:03;8.20;99.90
10083;DHT22;5080;48.528;8.078;2023-02-01T13:30:46;8.20;99.90
10083;DHT22;5080;48.528;8.078;2023-02-01T13:36:32;8.20;99.90
10083;DHT22;5080;48.528;8.078;2023-02-01T13:39:41;8.20;99.90
10083;DHT22;5080;48.528;8.078;2023-02-01T13:42:16;8.20;99.90
10083;DHT22;5080;48.528;8.078;2023-02-01T13:44:47;8.20;99.90
10083;DHT22;5080;48.528;8.078;2023-02-01T13:47:23;8.20;99.90
10083;DHT22;5080;48.528;8.078;2023-02-01T13:49:51;8.20;99.90
10083;DHT22;5080;48.528;8.078;2023-02-01T13:52:36;8.30;99.90
10083;DHT22;5080;48.528;8.078;2023-02-01T13:55:28;8.30;99.90
10083;DHT22;5080;48.528;8.078;2023-02-01T14:01:32;8.30;99.90
10083;DHT22;5080;48.528;8.078;2023-02-01T14:04:01;8.40;99.90
10083;DHT22;5080;48.528;8.078;2023-02-01T14:06:42;8.30;99.90
10083;DHT22;5080;48.528;8.078;2023-02-01T14:12:45;8.40;99.90
10083;DHT22;5080;48.528;8.078;2023-02-01T14:15:24;8.40;99.90
10083;DHT22;5080;48.528;8.078;2023-02-01T14:17:53;8.40;99.90
10083;DHT22;5080;48.528;8.078;2023-02-01T14:20:44;8.40;99.90
10083;DHT22;5080;48.528;8.078;2023-02-01T14:23:25;8.30;99.90
10083;DHT22;5080;48.528;8.078;2023-02-01T14:26:11;8.40;99.90
10083;DHT22;5080;48.528;8.078;2023-02-01T14:28:43;8.30;99.90
10083;DHT22;5080;48.528;8.078;2023-02-01T14:34:00;8.20;99.90
10083;DHT22;5080;48.528;8.078;2023-02-01T14:36:41;8.20;99.90
10083;DHT22;5080;48.528;8.078;2023-02-01T14:39:27;8.40;99.90
10083;DHT22;5080;48.528;8.078;2023-02-01T14:41:58;8.20;99.90
10083;DHT22;5080;48.528;8.078;2023-02-01T14:44:31;8.20;99.90
10083;DHT22;5080;48.528;8.078;2023-02-01T14:47:29;8.20;99.90
10083;DHT22;5080;48.528;8.078;2023-02-01T14:50:12;8.10;99.90
10083;DHT22;5080;48.528;8.078;2023-02-01T14:52:41;8.10;99.90
10083;DHT22;5080;48.528;8.078;2023-02-01T14:55:15;8.10;99.90
10083;DHT22;5080;48.528;8.078;2023-02-01T14:57:46;8.10;99.90
10083;DHT22;5080;48.528;8.078;2023-02-01T15:00:20;8.20;99.90
10083;DHT22;5080;48.528;8.078;2023-02-01T15:02:48;8.20;99.90
10083;DHT22;5080;48.528;8.078;2023-02-01T15:05:31;8.10;99.90
10083;DHT22;5080;48.528;8.078;2023-02-01T15:08:15;8.20;99.90
10083;DHT22;5080;48.528;8.078;2023-02-01T15:10:44;8.20;99.90
10083;DHT22;5080;48.528;8.078;2023-02-01T15:13:22;8.20;99.90
10083;DHT22;5080;48.528;8.078;2023-02-01T15:16:09;8.20;99.90
10083;DHT22;5080;48.528;8.078;2023-02-01T15:18:37;8.20;99.90
10083;DHT22;5080;48.528;8.078;2023-02-01T15:21:12;8.30;99.90
10083;DHT22;5080;48.528;8.078;2023-02-01T15:23:41;8.20;99.90
10083;DHT22;5080;48.528;8.078;2023-02-01T15:26:08;8.20;99.90
10083;DHT22;5080;48.528;8.078;2023-02-01T15:28:34;8.20;99.90
10083;DHT22;5080;48.528;8.078;2023-02-01T15:31:03;8.20;99.90
10083;DHT22;5080;48.528;8.078;2023-02-01T15:33:31;8.20;99.90
10083;DHT22;5080;48.528;8.078;2023-02-01T15:36:09;8.20;99.90
10083;DHT22;5080;48.528;8.078;2023-02-01T15:38:39;8.10;99.90
10083;DHT22;5080;48.528;8.078;2023-02-01T15:41:09;8.10;99.90
10083;DHT22;5080;48.528;8.078;2023-02-01T15:43:38;8.10;99.90
10083;DHT22;5080;48.528;8.078;2023-02-01T15:46:10;8.10;99.90
10083;DHT22;5080;48.528;8.078;2023-02-01T15:48:41;8.00;99.90
10083;DHT22;5080;48.528;8.078;2023-02-01T15:51:17;8.00;99.90
10083;DHT22;5080;48.528;8.078;2023-02-01T15:53:47;8.10;99.90
10083;DHT22;5080;48.528;8.078;2023-02-01T15:56:15;8.00;99.90
10083;DHT22;5080;48.528;8.078;2023-02-01T15:58:45;8.00;99.90
10083;DHT22;5080;48.528;8.078;2023-02-01T16:01:15;8.00;99.90
10083;DHT22;5080;48.528;8.078;2023-02-01T16:03:43;8.00;99.90
10083;DHT22;5080;48.528;8.078;2023-02-01T16:06:26;8.10;99.90
10083;DHT22;5080;48.528;8.078;2023-02-01T16:08:59;8.00;99.90
10083;DHT22;5080;48.528;8.078;2023-02-01T16:11:28;8.00;99.90
10083;DHT22;5080;48.528;8.078;2023-02-01T16:13:56;8.00;99.90
10083;DHT22;5080;48.528;8.078;2023-02-01T16:16:23;8.00;99.90
10083;DHT22;5080;48.528;8.078;2023-02-01T16:18:50;8.00;99.90
10083;DHT22;5080;48.528;8.078;2023-02-01T16:21:18;8.10;99.90
10083;DHT22;5080;48.528;8.078;2023-02-01T16:23:48;8.10;99.90
10083;DHT22;5080;48.528;8.078;2023-02-01T16:26:16;8.10;99.90
10083;DHT22;5080;48.528;8.078;2023-02-01T16:28:43;8.00;99.90
10083;DHT22;5080;48.528;8.078;2023-02-01T16:31:12;8.00;99.90
10083;DHT22;5080;48.528;8.078;2023-02-01T16:33:45;8.00;99.90
10083;DHT22;5080;48.528;8.078;2023-02-01T16:36:12;8.00;99.90
10083;DHT22;5080;48.528;8.078;2023-02-01T16:38:41;8.10;99.90
10083;DHT22;5080;48.528;8.078;2023-02-01T16:41:12;8.10;99.90
10083;DHT22;5080;48.528;8.078;2023-02-01T16:43:39;8.10;99.90
10083;DHT22;5080;48.528;8.078;2023-02-01T16:46:11;8.10;99.90
10083;DHT22;5080;48.528;8.078;2023-02-01T16:48:40;8.10;99.90
10083;DHT22;5080;48.528;8.078;2023-02-01T16:51:11;8.10;99.90